createdAt,value
2016-05-09T00:00:14.747Z,49.52
2016-05-09T00:01:14.750Z,49.81
2016-05-09T00:02:14.738Z,49.62
2016-05-09T00:03:14.599Z,49.81
2016-05-09T00:04:14.743Z,49.71
2016-05-09T00:05:14.745Z,49.62
2016-05-09T00:06:14.748Z,49.71
2016-05-09T00:07:14.751Z,49.62
2016-05-09T00:08:14.770Z,49.81
2016-05-09T00:09:14.772Z,49.71
2016-05-09T00:10:14.759Z,50.48
2016-05-09T00:11:14.839Z,50.2
2016-05-09T00:12:14.764Z,50.87
2016-05-09T00:13:14.783Z,50.48
2016-05-09T00:14:14.629Z,50.38
2016-05-09T00:15:14.772Z,50.58
2016-05-09T00:16:14.853Z,50.58
2016-05-09T00:17:14.777Z,50.48
2016-05-09T00:18:14.811Z,50.56
2016-05-09T00:19:14.783Z,50.48
2016-05-09T00:20:14.786Z,50.38
2016-05-09T00:21:14.805Z,50.87
2016-05-09T00:22:14.791Z,50.56
2016-05-09T00:23:14.778Z,50.48
2016-05-09T00:24:14.796Z,51.15
2016-05-09T00:25:14.783Z,50.74
2016-05-09T00:26:14.848Z,51.22
2016-05-09T00:27:14.649Z,51.03
2016-05-09T00:28:14.791Z,51.22
2016-05-09T00:29:14.810Z,51.22
2016-05-09T00:30:14.797Z,51.13
2016-05-09T00:31:14.877Z,51.79
2016-05-09T00:32:14.818Z,51.7
2016-05-09T00:33:14.680Z,51.89
2016-05-09T00:34:14.667Z,51.79
2016-05-09T00:35:14.826Z,51.7
2016-05-09T00:36:14.829Z,52.28
2016-05-09T00:37:14.847Z,51.89
2016-05-09T00:38:14.818Z,51.89
2016-05-09T00:39:14.853Z,51.79
2016-05-09T00:40:14.840Z,50.93
2016-05-09T00:41:14.889Z,50.93
2016-05-09T00:42:14.861Z,50.74
2016-05-09T00:43:14.864Z,50.84
2016-05-09T00:44:14.851Z,51.06
2016-05-09T00:45:14.852Z,50.29
2016-05-09T00:46:14.934Z,50.48
2016-05-09T00:47:14.858Z,50.77
2016-05-09T00:48:14.861Z,50.17
2016-05-09T00:49:14.863Z,50.38
2016-05-09T00:50:14.867Z,50.07
2016-05-09T00:51:14.885Z,50
2016-05-09T00:52:14.872Z,50.46
2016-05-09T00:53:14.874Z,50.38
2016-05-09T00:54:14.861Z,49.43
2016-05-09T00:55:14.880Z,49.52
2016-05-09T00:56:14.913Z,49.81
2016-05-09T00:57:14.729Z,49.24
2016-05-09T00:58:14.888Z,48.85
2016-05-09T00:59:15.047Z,48.95
2016-05-09T01:00:14.877Z,49.14
2016-05-09T01:01:14.818Z,48.47
2016-05-09T01:02:14.883Z,48.09
2016-05-09T01:03:14.760Z,47.03
2016-05-09T01:04:14.888Z,47.8
2016-05-09T01:05:14.907Z,47.71
2016-05-09T01:06:14.909Z,47.03
2016-05-09T01:07:14.896Z,45.98
2016-05-09T01:08:14.898Z,45.31
2016-05-09T01:09:14.902Z,45.02
2016-05-09T01:10:14.921Z,45.02
2016-05-09T01:11:15.001Z,44.83
2016-05-09T01:12:14.894Z,44.85
2016-05-09T01:13:14.740Z,44.54
2016-05-09T01:14:14.914Z,44.56
2016-05-09T01:15:14.918Z,44.95
2016-05-09T01:16:14.937Z,43.6
2016-05-09T01:17:14.923Z,43.8
2016-05-09T01:18:14.926Z,43.9
2016-05-09T01:19:14.944Z,44.18
2016-05-09T01:20:14.791Z,44.66
2016-05-09T01:21:14.933Z,44.85
2016-05-09T01:22:14.797Z,44.37
2016-05-09T01:23:14.939Z,44.56
2016-05-09T01:24:14.958Z,44.54
2016-05-09T01:25:14.944Z,44.85
2016-05-09T01:26:14.979Z,44.76
2016-05-09T01:27:14.966Z,45.31
2016-05-09T01:28:14.813Z,45.12
2016-05-09T01:29:14.815Z,45.31
2016-05-09T01:30:14.958Z,45.5
2016-05-09T01:31:14.960Z,45.31
2016-05-09T01:32:14.807Z,45.12
2016-05-09T01:33:14.966Z,45.4
2016-05-09T01:34:14.954Z,44.83
2016-05-09T01:35:14.815Z,45.12
2016-05-09T01:36:14.818Z,44.93
2016-05-09T01:37:14.820Z,45.21
2016-05-09T01:38:14.980Z,45.12
2016-05-09T01:39:14.983Z,45.12
2016-05-09T01:40:14.813Z,45.12
2016-05-09T01:41:15.020Z,45.12
2016-05-09T01:42:14.975Z,45.12
2016-05-09T01:43:14.992Z,45.31
2016-05-09T01:44:15.715Z,45.12
2016-05-09T01:45:14.983Z,45.31
2016-05-09T01:46:15.033Z,45.5
2016-05-09T01:47:14.989Z,45.79
2016-05-09T01:48:15.022Z,46.17
2016-05-09T01:49:14.994Z,45.79
2016-05-09T01:50:15.011Z,45.89
2016-05-09T01:51:15.015Z,45.98
2016-05-09T01:52:15.017Z,45.98
2016-05-09T01:53:15.020Z,45.79
2016-05-09T01:54:15.038Z,45.79
2016-05-09T01:55:15.010Z,45.79
2016-05-09T01:56:15.028Z,46.46
2016-05-09T01:57:15.031Z,46.55
2016-05-09T01:58:15.033Z,46.75
2016-05-09T01:59:15.021Z,46.55
2016-05-09T02:00:15.038Z,47.01
2016-05-09T02:01:15.026Z,47.39
2016-05-09T02:02:15.029Z,47.68
2016-05-09T02:03:15.032Z,47.68
2016-05-09T02:04:15.035Z,47.68
2016-05-09T02:05:15.037Z,48.25
2016-05-09T02:06:15.039Z,48.54
2016-05-09T02:07:15.042Z,49.02
2016-05-09T02:08:15.046Z,49.02
2016-05-09T02:09:15.048Z,49.57
2016-05-09T02:10:15.051Z,49.86
2016-05-09T02:11:15.068Z,49.38
2016-05-09T02:12:15.056Z,49.95
2016-05-09T02:13:15.073Z,50.43
2016-05-09T02:14:15.077Z,50.43
2016-05-09T02:15:14.907Z,50.62
2016-05-09T02:16:15.145Z,50.81
2016-05-09T02:17:15.100Z,50.91
2016-05-09T02:18:15.072Z,50.91
2016-05-09T02:19:15.089Z,51.2
2016-05-09T02:20:15.077Z,51.75
2016-05-09T02:21:15.080Z,52.13
2016-05-09T02:22:15.083Z,52.22
2016-05-09T02:23:15.085Z,52.32
2016-05-09T02:24:15.079Z,52.32
2016-05-09T02:25:15.096Z,52.22
2016-05-09T02:26:15.085Z,51.75
2016-05-09T02:27:15.088Z,51.84
2016-05-09T02:28:15.090Z,51.56
2016-05-09T02:29:15.092Z,51.84
2016-05-09T02:30:14.939Z,51.46
2016-05-09T02:31:15.176Z,51.84
2016-05-09T02:32:15.101Z,51.65
2016-05-09T02:33:14.963Z,52.03
2016-05-09T02:34:15.121Z,52.22
2016-05-09T02:35:15.109Z,52.51
2016-05-09T02:36:15.111Z,53.18
2016-05-09T02:37:15.129Z,52.89
2016-05-09T02:38:15.101Z,52.89
2016-05-09T02:39:15.104Z,53.47
2016-05-09T02:40:15.122Z,53.37
2016-05-09T02:41:15.172Z,53.28
2016-05-09T02:42:15.112Z,54.04
2016-05-09T02:43:15.114Z,53.63
2016-05-09T02:44:14.977Z,53.85
2016-05-09T02:45:15.136Z,53.73
2016-05-09T02:46:15.169Z,54.59
2016-05-09T02:47:14.985Z,54.78
2016-05-09T02:48:15.113Z,55.16
2016-05-09T02:49:15.428Z,55.26
2016-05-09T02:50:15.118Z,55.07
2016-05-09T02:51:15.246Z,55.26
2016-05-09T02:52:15.123Z,55.45
2016-05-09T02:53:15.126Z,55.26
2016-05-09T02:54:15.128Z,55.16
2016-05-09T02:55:15.132Z,55.54
2016-05-09T02:56:15.149Z,55.54
2016-05-09T02:57:15.137Z,55.74
2016-05-09T02:58:15.154Z,55.83
2016-05-09T02:59:15.361Z,56.02
2016-05-09T03:00:15.160Z,55.93
2016-05-09T03:01:15.148Z,56.02
2016-05-09T03:02:15.134Z,55.93
2016-05-09T03:03:15.153Z,56.12
2016-05-09T03:04:15.155Z,56.47
2016-05-09T03:05:15.158Z,56.6
2016-05-09T03:06:15.145Z,56.4
2016-05-09T03:07:15.148Z,56.18
2016-05-09T03:08:15.166Z,56.47
2016-05-09T03:09:15.170Z,56.4
2016-05-09T03:10:15.172Z,56.31
2016-05-09T03:11:15.189Z,56.28
2016-05-09T03:12:15.177Z,57.14
2016-05-09T03:13:15.164Z,57.9
2016-05-09T03:14:15.183Z,57.71
2016-05-09T03:15:15.169Z,57.43
2016-05-09T03:16:15.172Z,57.14
2016-05-09T03:17:15.175Z,57.04
2016-05-09T03:18:15.177Z,57.53
2016-05-09T03:19:15.180Z,58
2016-05-09T03:20:15.183Z,58.1
2016-05-09T03:21:15.170Z,58.29
2016-05-09T03:22:15.172Z,58.86
2016-05-09T03:23:15.175Z,58.58
2016-05-09T03:24:15.177Z,58.76
2016-05-09T03:25:15.180Z,58.76
2016-05-09T03:26:15.215Z,58.83
2016-05-09T03:27:15.186Z,59.02
2016-05-09T03:28:15.189Z,59.12
2016-05-09T03:29:15.207Z,59.34
2016-05-09T03:30:15.194Z,59.5
2016-05-09T03:31:15.181Z,59.72
2016-05-09T03:32:15.184Z,59.59
2016-05-09T03:33:15.186Z,59.5
2016-05-09T03:34:15.049Z,59.22
2016-05-09T03:35:15.192Z,59.69
2016-05-09T03:36:15.288Z,60.27
2016-05-09T03:37:15.181Z,59.88
2016-05-09T03:38:15.029Z,60.17
2016-05-09T03:39:15.187Z,60.1
2016-05-09T03:40:15.190Z,60.07
2016-05-09T03:41:15.239Z,60.46
2016-05-09T03:42:15.211Z,60.55
2016-05-09T03:43:15.197Z,60.93
2016-05-09T03:44:15.217Z,60.64
2016-05-09T03:45:15.203Z,60.74
2016-05-09T03:46:15.253Z,60.64
2016-05-09T03:47:15.052Z,60.74
2016-05-09T03:48:15.211Z,60.74
2016-05-09T03:49:19.964Z,60.64
2016-05-09T03:50:16.216Z,61.22
2016-05-09T03:51:15.219Z,60.93
2016-05-09T03:52:15.222Z,60.46
2016-05-09T03:53:15.224Z,61.03
2016-05-09T03:54:15.227Z,60.93
2016-05-09T03:55:15.214Z,60.74
2016-05-09T03:56:15.296Z,61.22
2016-05-09T03:57:15.217Z,60.74
2016-05-09T03:58:15.204Z,60.84
2016-05-09T03:59:15.990Z,61.13
2016-05-09T04:00:15.224Z,61.03
2016-05-09T04:01:15.228Z,60.93
2016-05-09T04:02:15.215Z,61.13
2016-05-09T04:03:15.062Z,61.13
2016-05-09T04:04:15.235Z,61.13
2016-05-09T04:05:15.223Z,61.98
2016-05-09T04:06:15.303Z,61.98
2016-05-09T04:07:15.213Z,61.89
2016-05-09T04:08:15.231Z,61.69
2016-05-09T04:09:15.234Z,61.6
2016-05-09T04:10:15.220Z,61.79
2016-05-09T04:11:15.254Z,61.51
2016-05-09T04:12:15.241Z,61.22
2016-05-09T04:13:15.245Z,61.32
2016-05-09T04:14:15.263Z,61.13
2016-05-09T04:15:15.234Z,61.03
2016-05-09T04:16:15.252Z,61.22
2016-05-09T04:17:15.239Z,60.64
2016-05-09T04:18:15.242Z,60.46
2016-05-09T04:19:15.230Z,60.55
2016-05-09T04:20:15.233Z,60.64
2016-05-09T04:21:15.313Z,60.17
2016-05-09T04:22:15.237Z,59.53
2016-05-09T04:23:15.255Z,59.53
2016-05-09T04:24:15.243Z,58.41
2016-05-09T04:25:15.246Z,58.32
2016-05-09T04:26:15.249Z,57.07
2016-05-09T04:27:15.235Z,56.72
2016-05-09T04:28:15.238Z,55.47
2016-05-09T04:29:15.257Z,54.8
2016-05-09T04:30:15.259Z,53.2
2016-05-09T04:31:15.262Z,52.56
2016-05-09T04:32:15.265Z,52.47
2016-05-09T04:33:15.282Z,51.92
2016-05-09T04:34:15.270Z,50.1
2016-05-09T04:35:15.257Z,50.29
2016-05-09T04:36:15.353Z,49.74
2016-05-09T04:37:15.278Z,49.84
2016-05-09T04:38:15.124Z,49.93
2016-05-09T04:39:15.284Z,49.55
2016-05-09T04:40:15.286Z,49.74
2016-05-09T04:41:15.335Z,49.07
2016-05-09T04:42:15.291Z,48.78
2016-05-09T04:43:15.294Z,48.02
2016-05-09T04:44:16.172Z,47.46
2016-05-09T04:45:15.300Z,46.7
2016-05-09T04:46:15.365Z,46.14
2016-05-09T04:47:15.305Z,46.05
2016-05-09T04:48:15.322Z,45.18
2016-05-09T04:49:15.325Z,44.44
2016-05-09T04:50:15.329Z,43.48
2016-05-09T04:51:15.330Z,42.83
2016-05-09T04:52:15.334Z,41.79
2016-05-09T04:53:15.336Z,41.5
2016-05-09T04:54:15.183Z,40.95
2016-05-09T04:55:15.201Z,40.85
2016-05-09T04:56:15.392Z,40.66
2016-05-09T04:57:15.363Z,39.81
2016-05-09T04:58:15.381Z,39.91
2016-05-09T04:59:15.227Z,39.81
2016-05-09T05:00:15.371Z,39.33
2016-05-09T05:01:15.373Z,38.76
2016-05-09T05:02:15.392Z,38.47
2016-05-09T05:03:15.410Z,38.85
2016-05-09T05:04:15.429Z,38.66
2016-05-09T05:05:15.399Z,38.66
2016-05-09T05:06:15.465Z,39.24
2016-05-09T05:07:15.405Z,39.51
2016-05-09T05:08:15.455Z,40.37
2016-05-09T05:09:15.285Z,41.31
2016-05-09T05:10:15.445Z,42.06
2016-05-09T05:11:15.479Z,43.29
2016-05-09T05:12:15.450Z,44.34
2016-05-09T05:13:15.453Z,44.61
2016-05-09T05:14:15.315Z,45.28
2016-05-09T05:15:15.458Z,45.36
2016-05-09T05:16:15.539Z,46.31
2016-05-09T05:17:15.494Z,47.06
2016-05-09T05:18:15.482Z,47.25
2016-05-09T05:19:15.500Z,47.73
2016-05-09T05:20:15.503Z,48.3
2016-05-09T05:21:15.521Z,48.21
2016-05-09T05:22:15.508Z,46.96
2016-05-09T05:23:15.494Z,46.5
2016-05-09T05:24:15.498Z,45.83
2016-05-09T05:25:15.501Z,46.12
2016-05-09T05:26:15.519Z,46.5
2016-05-09T05:27:15.505Z,45.93
2016-05-09T05:28:15.524Z,46.03
2016-05-09T05:29:16.605Z,45.47
2016-05-09T05:30:15.530Z,44.32
2016-05-09T05:31:15.564Z,43.77
2016-05-09T05:32:15.379Z,42.81
2016-05-09T05:33:15.553Z,41.67
2016-05-09T05:34:15.540Z,40.83
2016-05-09T05:35:15.559Z,39.99
2016-05-09T05:36:15.624Z,39.31
2016-05-09T05:37:15.565Z,38.74
2016-05-09T05:38:15.410Z,38.47
2016-05-09T05:39:15.585Z,38.56
2016-05-09T05:40:15.634Z,38.66
2016-05-09T05:41:15.418Z,38.66
2016-05-09T05:42:15.578Z,37.51
2016-05-09T05:43:15.596Z,37.52
2016-05-09T05:44:15.864Z,38.2
2016-05-09T05:45:15.617Z,38.66
2016-05-09T05:46:15.604Z,38.95
2016-05-09T05:47:15.607Z,39.89
2016-05-09T05:48:15.640Z,40.93
2016-05-09T05:49:15.487Z,41.5
2016-05-09T05:50:15.630Z,41.67
2016-05-09T05:51:15.633Z,42.25
2016-05-09T05:52:15.635Z,42.52
2016-05-09T05:53:15.653Z,41.39
2016-05-09T05:54:15.657Z,39.97
2016-05-09T05:55:15.644Z,38.95
2016-05-09T05:56:15.694Z,38.85
2016-05-09T05:57:15.664Z,38.56
2016-05-09T05:58:15.667Z,39.41
2016-05-09T05:59:16.123Z,39.7
2016-05-09T06:00:15.672Z,39.89
2016-05-09T06:01:15.750Z,40.64
2016-05-09T06:02:15.797Z,40.55
2016-05-09T06:03:15.827Z,40.83
2016-05-09T06:04:15.905Z,40.83
2016-05-09T06:05:15.921Z,39.12
2016-05-09T06:06:15.939Z,37.89
2016-05-09T06:07:15.974Z,37.14
2016-05-09T06:08:16.006Z,35.73
2016-05-09T06:09:16.010Z,34.59
2016-05-09T06:10:16.029Z,34.52
2016-05-09T06:11:16.037Z,33.45
2016-05-09T06:12:15.904Z,32.89
2016-05-09T06:13:16.085Z,31.25
2016-05-09T06:14:16.583Z,30.79
2016-05-09T06:15:16.091Z,29.93
2016-05-09T06:16:16.143Z,29.27
2016-05-09T06:17:16.147Z,28.5
2016-05-09T06:18:16.121Z,28.03
2016-05-09T06:19:16.141Z,27.45
2016-05-09T06:20:16.145Z,26.98
2016-05-09T06:21:16.148Z,27.75
2016-05-09T06:22:16.168Z,26.4
2016-05-09T06:23:16.171Z,26.51
2016-05-09T06:24:16.018Z,26.79
2016-05-09T06:25:16.178Z,26.41
2016-05-09T06:26:16.197Z,26.42
2016-05-09T06:27:16.247Z,25.95
2016-05-09T06:28:16.203Z,24.69
2016-05-09T06:29:16.392Z,24.4
2016-05-09T06:30:16.223Z,23.93
2016-05-09T06:31:16.289Z,23.26
2016-05-09T06:32:16.260Z,22.49
2016-05-09T06:33:16.246Z,22.89
2016-05-09T06:34:16.280Z,22.4
2016-05-09T06:35:16.127Z,22.31
2016-05-09T06:36:16.317Z,22.02
2016-05-09T06:37:16.461Z,21.93
2016-05-09T06:38:16.307Z,21.82
2016-05-09T06:39:16.325Z,22.79
2016-05-09T06:40:16.344Z,22.49
2016-05-09T06:41:19.440Z,22.5
2016-05-09T06:42:16.349Z,22.6
2016-05-09T06:43:16.368Z,22.69
2016-05-09T06:44:16.385Z,23.26
2016-05-09T06:45:16.374Z,23.64
2016-05-09T06:46:16.391Z,23.93
2016-05-09T06:47:16.269Z,23.93
2016-05-09T06:48:16.428Z,23.44
2016-05-09T06:49:16.446Z,23.26
2016-05-09T06:50:16.434Z,23.54
2016-05-09T06:51:16.451Z,23.54
2016-05-09T06:52:16.485Z,23.64
2016-05-09T06:53:16.472Z,25.08
2016-05-09T06:54:16.475Z,25.35
2016-05-09T06:55:16.493Z,25.44
2016-05-09T06:56:16.496Z,24.96
2016-05-09T06:57:16.515Z,24.78
2016-05-09T06:58:16.517Z,24.49
2016-05-09T06:59:16.379Z,23.63
2016-05-09T07:00:16.539Z,23.54
2016-05-09T07:01:16.478Z,23.16
2016-05-09T07:02:16.403Z,22.49
2016-05-09T07:03:16.577Z,21.72
2016-05-09T07:04:16.580Z,21.62
2016-05-09T07:05:16.599Z,20.96
2016-05-09T07:06:16.616Z,21.06
2016-05-09T07:07:16.636Z,20.97
2016-05-09T07:08:16.622Z,20.97
2016-05-09T07:09:16.641Z,20.87
2016-05-09T07:10:16.627Z,20.39
2016-05-09T07:11:16.521Z,20.39
2016-05-09T07:12:16.664Z,20.3
2016-05-09T07:13:16.683Z,20.39
2016-05-09T07:14:17.061Z,20.97
2016-05-09T07:15:16.688Z,21.34
2016-05-09T07:16:16.754Z,21.43
2016-05-09T07:17:16.740Z,22.2
2016-05-09T07:18:16.743Z,23.07
2016-05-09T07:19:16.762Z,24.41
2016-05-09T07:20:16.764Z,25.65
2016-05-09T07:21:16.829Z,26.4
2016-05-09T07:22:16.801Z,27.55
2016-05-09T07:23:16.772Z,28.69
2016-05-09T07:24:16.790Z,29.53
2016-05-09T07:25:16.824Z,30.21
2016-05-09T07:26:16.843Z,30.01
2016-05-09T07:27:16.829Z,30.01
2016-05-09T07:28:16.676Z,29.72
2016-05-09T07:29:17.101Z,28.77
2016-05-09T07:30:16.838Z,27.62
2016-05-09T07:31:16.919Z,26.3
2016-05-09T07:32:16.889Z,25.54
2016-05-09T07:33:16.706Z,24.49
2016-05-09T07:34:16.880Z,24.21
2016-05-09T07:35:16.883Z,23.25
2016-05-09T07:36:16.901Z,22.89
2016-05-09T07:37:16.935Z,22.2
2016-05-09T07:38:16.922Z,21.73
2016-05-09T07:39:16.925Z,21.64
2016-05-09T07:40:16.943Z,22.5
2016-05-09T07:41:16.899Z,22.5
2016-05-09T07:42:16.980Z,21.82
2016-05-09T07:43:16.966Z,21.83
2016-05-09T07:44:17.000Z,21.64
2016-05-09T07:45:16.988Z,21.45
2016-05-09T07:46:17.052Z,21.55
2016-05-09T07:47:17.008Z,22.02
2016-05-09T07:48:17.058Z,22.6
2016-05-09T07:49:17.045Z,22.99
2016-05-09T07:50:17.080Z,23.47
2016-05-09T07:51:17.087Z,23.26
2016-05-09T07:52:17.074Z,23.07
2016-05-09T07:53:17.093Z,22.97
2016-05-09T07:54:17.079Z,23.07
2016-05-09T07:55:17.107Z,23.44
2016-05-09T07:56:17.141Z,22.97
2016-05-09T07:57:17.128Z,21.62
2016-05-09T07:58:16.974Z,21.54
2016-05-09T07:59:16.978Z,21.06
2016-05-09T08:00:17.136Z,20.49
2016-05-09T08:01:17.138Z,20.88
2016-05-09T08:02:17.173Z,21.08
2016-05-09T08:03:17.160Z,21.36
2016-05-09T08:04:17.178Z,20.88
2016-05-09T08:05:17.509Z,20.49
2016-05-09T08:06:28.496Z,20.49
2016-05-09T08:07:25.248Z,20.11
2016-05-09T08:08:17.673Z,20.31
2016-05-09T08:09:28.301Z,19.82
2016-05-09T08:10:17.866Z,21.29
2016-05-09T08:11:22.182Z,19.93
2016-05-09T08:12:21.340Z,20.12
2016-05-09T08:13:17.281Z,19.44
2016-05-09T08:14:17.298Z,19.06
2016-05-09T08:15:17.301Z,19.55
2016-05-09T08:16:17.320Z,19.16
2016-05-09T08:17:17.167Z,19.55
2016-05-09T08:18:17.342Z,19.54
2016-05-09T08:19:17.359Z,19.93
2016-05-09T08:20:17.361Z,20.32
2016-05-09T08:21:17.287Z,20.42
2016-05-09T08:22:17.398Z,20.89
2016-05-09T08:23:17.229Z,20.7
2016-05-09T08:24:17.404Z,20.99
2016-05-09T08:25:17.407Z,21.09
2016-05-09T08:26:17.425Z,20.4
2016-05-09T08:27:17.428Z,20.4
2016-05-09T08:28:17.446Z,21.28
2016-05-09T08:29:17.761Z,21.37
2016-05-09T08:30:17.483Z,22.13
2016-05-09T08:31:17.485Z,22.62
2016-05-09T08:32:17.363Z,22.42
2016-05-09T08:33:17.491Z,22.52
2016-05-09T08:34:17.509Z,22.03
2016-05-09T08:35:17.512Z,21.75
2016-05-09T08:36:17.546Z,21.94
2016-05-09T08:37:17.549Z,22.14
2016-05-09T08:38:17.551Z,21.65
2016-05-09T08:39:17.568Z,21.27
2016-05-09T08:40:17.587Z,21.09
2016-05-09T08:41:17.622Z,21.28
2016-05-09T08:42:17.437Z,21.28
2016-05-09T08:43:17.612Z,21.37
2016-05-09T08:44:17.629Z,22.42
2016-05-09T08:45:17.648Z,22.9
2016-05-09T08:46:17.713Z,23.48
2016-05-09T08:47:17.653Z,24.44
2016-05-09T08:48:17.687Z,25.49
2016-05-09T08:49:17.675Z,25.96
2016-05-09T08:50:17.677Z,26.05
2016-05-09T08:51:17.695Z,26.82
2016-05-09T08:52:17.714Z,27.49
2016-05-09T08:53:17.732Z,27.96
2016-05-09T08:54:17.734Z,28.64
2016-05-09T08:55:17.737Z,29.01
2016-05-09T08:56:17.819Z,28.99
2016-05-09T08:57:17.758Z,29.67
2016-05-09T08:58:17.777Z,30.14
2016-05-09T08:59:18.358Z,30.14
2016-05-09T09:00:17.797Z,30.52
2016-05-09T09:01:17.816Z,30.52
2016-05-09T09:02:17.819Z,30.62
2016-05-09T09:03:17.821Z,31.1
2016-05-09T09:04:17.840Z,31.59
2016-05-09T09:05:17.843Z,31.01
2016-05-09T09:06:17.845Z,31.01
2016-05-09T09:07:17.848Z,31.1
2016-05-09T09:08:17.865Z,30.72
2016-05-09T09:09:17.869Z,30.82
2016-05-09T09:10:17.715Z,30.91
2016-05-09T09:11:17.733Z,30.82
2016-05-09T09:12:17.736Z,30.82
2016-05-09T09:13:17.896Z,30.14
2016-05-09T09:14:17.913Z,30.14
2016-05-09T09:15:17.916Z,30.14
2016-05-09T09:16:17.919Z,31.1
2016-05-09T09:17:17.937Z,30.62
2016-05-09T09:18:17.956Z,30.82
2016-05-09T09:19:17.959Z,30.72
2016-05-09T09:20:17.961Z,30.62
2016-05-09T09:21:18.057Z,30.24
2016-05-09T09:22:17.809Z,30.04
2016-05-09T09:23:17.984Z,30.24
2016-05-09T09:24:18.003Z,30.33
2016-05-09T09:25:17.990Z,30.24
2016-05-09T09:26:17.992Z,30.25
2016-05-09T09:27:18.027Z,29.75
2016-05-09T09:28:18.014Z,29.47
2016-05-09T09:29:18.047Z,29.19
2016-05-09T09:30:18.050Z,29.38
2016-05-09T09:31:18.099Z,29.86
2016-05-09T09:32:17.916Z,30.15
2016-05-09T09:33:18.058Z,29.96
2016-05-09T09:34:18.061Z,30.25
2016-05-09T09:35:18.064Z,30.25
2016-05-09T09:36:18.113Z,29.86
2016-05-09T09:37:18.085Z,29.47
2016-05-09T09:38:18.088Z,29.38
2016-05-09T09:39:18.090Z,29.3
2016-05-09T09:40:18.108Z,29.1
2016-05-09T09:41:18.190Z,29.78
2016-05-09T09:42:18.129Z,29.59
2016-05-09T09:43:18.132Z,29.01
2016-05-09T09:44:18.134Z,29.39
2016-05-09T09:45:18.154Z,29.3
2016-05-09T09:46:18.187Z,29.78
2016-05-09T09:47:18.158Z,29.49
2016-05-09T09:48:18.162Z,29.59
2016-05-09T09:49:18.195Z,29.59
2016-05-09T09:50:18.182Z,28.83
2016-05-09T09:51:18.200Z,28.64
2016-05-09T09:52:18.203Z,28.44
2016-05-09T09:53:18.206Z,28.54
2016-05-09T09:54:18.209Z,28.44
2016-05-09T09:55:18.056Z,28.64
2016-05-09T09:56:18.230Z,28.54
2016-05-09T09:57:18.248Z,28.73
2016-05-09T09:58:18.235Z,29.7
2016-05-09T09:59:18.269Z,29.8
2016-05-09T10:00:18.271Z,30.17
2016-05-09T10:01:18.289Z,30.65
2016-05-09T10:02:18.293Z,31.04
2016-05-09T10:03:18.280Z,30.36
2016-05-09T10:04:18.314Z,30.83
2016-05-09T10:05:18.301Z,29.86
2016-05-09T10:06:18.382Z,30.25
2016-05-09T10:07:18.305Z,30.35
2016-05-09T10:08:18.324Z,30.54
2016-05-09T10:09:18.327Z,30.62
2016-05-09T10:10:18.345Z,31.88
2016-05-09T10:11:18.457Z,30.52
2016-05-09T10:12:18.351Z,29.96
2016-05-09T10:13:18.354Z,30.05
2016-05-09T10:14:18.763Z,29.67
2016-05-09T10:15:18.374Z,29.59
2016-05-09T10:16:18.377Z,29.97
2016-05-09T10:17:18.380Z,29.97
2016-05-09T10:18:18.398Z,28.83
2016-05-09T10:19:18.401Z,28.54
2016-05-09T10:20:18.404Z,28.25
2016-05-09T10:21:18.437Z,27.68
2016-05-09T10:22:18.440Z,26.72
2016-05-09T10:23:18.428Z,26.81
2016-05-09T10:24:18.445Z,26.92
2016-05-09T10:25:18.464Z,26.34
2016-05-09T10:26:18.451Z,26.34
2016-05-09T10:27:18.469Z,26.15
2016-05-09T10:28:18.472Z,25.76
2016-05-09T10:29:18.475Z,25.37
2016-05-09T10:30:18.493Z,25.56
2016-05-09T10:31:18.495Z,24.4
2016-05-09T10:32:18.498Z,24.3
2016-05-09T10:33:18.532Z,24.71
2016-05-09T10:34:18.520Z,24.79
2016-05-09T10:35:18.538Z,24.88
2016-05-09T10:36:18.541Z,24.71
2016-05-09T10:37:18.386Z,24.32
2016-05-09T10:38:18.546Z,23.44
2016-05-09T10:39:18.548Z,23.74
2016-05-09T10:40:18.566Z,23.35
2016-05-09T10:41:18.569Z,22.58
2016-05-09T10:42:18.588Z,22.78
2016-05-09T10:43:18.591Z,23.46
2016-05-09T10:44:18.609Z,21.23
2016-05-09T10:45:18.612Z,19.87
2016-05-09T10:46:18.645Z,19.68
2016-05-09T10:47:18.632Z,20.45
2016-05-09T10:48:18.620Z,21.33
2016-05-09T10:49:18.638Z,20.44
2016-05-09T10:50:18.656Z,20.34
2016-05-09T10:51:18.706Z,21.12
2016-05-09T10:52:18.645Z,22.09
2016-05-09T10:53:18.664Z,22.57
2016-05-09T10:54:18.682Z,21.99
2016-05-09T10:55:18.701Z,21.99
2016-05-09T10:56:18.704Z,22.39
2016-05-09T10:57:18.722Z,21.81
2016-05-09T10:58:18.709Z,22.3
2016-05-09T10:59:18.727Z,23.07
2016-05-09T11:00:18.730Z,22.78
2016-05-09T11:01:18.733Z,22.97
2016-05-09T11:02:18.735Z,22.97
2016-05-09T11:03:18.769Z,22.3
2016-05-09T11:04:18.756Z,22.11
2016-05-09T11:05:18.618Z,22.02
2016-05-09T11:06:18.777Z,23.08
2016-05-09T11:07:18.796Z,22.6
2016-05-09T11:08:18.783Z,23.28
2016-05-09T11:09:18.816Z,24.55
2016-05-09T11:10:18.804Z,22.9
2016-05-09T11:11:18.665Z,23.38
2016-05-09T11:12:18.824Z,24.55
2016-05-09T11:13:18.844Z,23.66
2016-05-09T11:14:18.705Z,23.28
2016-05-09T11:15:18.849Z,23.37
2016-05-09T11:16:18.866Z,23.37
2016-05-09T11:17:18.868Z,23.08
2016-05-09T11:18:18.887Z,22.79
2016-05-09T11:19:18.890Z,22.69
2016-05-09T11:20:18.909Z,22.5
2016-05-09T11:21:18.911Z,22.41
2016-05-09T11:22:18.929Z,21.64
2016-05-09T11:23:18.760Z,21.25
2016-05-09T11:24:18.779Z,21.34
2016-05-09T11:25:18.954Z,22.2
2016-05-09T11:26:18.956Z,22.5
2016-05-09T11:27:18.959Z,22.97
2016-05-09T11:28:18.978Z,23.26
2016-05-09T11:29:19.573Z,23.44
2016-05-09T11:30:18.997Z,23.74
2016-05-09T11:31:19.001Z,24.11
2016-05-09T11:32:19.003Z,24.5
2016-05-09T11:33:19.053Z,24.4
2016-05-09T11:34:19.024Z,24.3
2016-05-09T11:35:19.042Z,24.21
2016-05-09T11:36:19.124Z,23.54
2016-05-09T11:37:19.048Z,23.54
2016-05-09T11:38:19.067Z,24.22
2016-05-09T11:39:19.069Z,24.51
2016-05-09T11:40:19.072Z,23.64
2016-05-09T11:41:19.153Z,26.26
2016-05-09T11:42:19.093Z,25.58
2016-05-09T11:43:19.096Z,24.72
2016-05-09T11:44:19.505Z,23.55
2016-05-09T11:45:19.116Z,22.79
2016-05-09T11:46:19.197Z,22.3
2016-05-09T11:47:18.981Z,21.64
2016-05-09T11:48:19.157Z,21.34
2016-05-09T11:49:19.159Z,21.36
2016-05-09T11:50:19.020Z,21.16
2016-05-09T11:51:19.179Z,20.77
2016-05-09T11:52:19.182Z,21.06
2016-05-09T11:53:19.201Z,20.97
2016-05-09T11:54:19.188Z,20.98
2016-05-09T11:55:19.221Z,21.47
2016-05-09T11:56:19.270Z,21.85
2016-05-09T11:57:19.226Z,21.47
2016-05-09T11:58:19.230Z,21.66
2016-05-09T11:59:19.389Z,20.97
2016-05-09T12:00:19.094Z,21.06
2016-05-09T12:01:19.269Z,21.25
2016-05-09T12:02:19.272Z,21.53
2016-05-09T12:03:19.290Z,21.93
2016-05-09T12:04:19.293Z,22.6
2016-05-09T12:05:19.311Z,22.2
2016-05-09T12:06:19.313Z,22.3
2016-05-09T12:07:19.316Z,22.6
2016-05-09T12:08:19.336Z,22.68
2016-05-09T12:09:19.181Z,22.78
2016-05-09T12:10:19.355Z,22.78
2016-05-09T12:11:19.343Z,22.5
2016-05-09T12:12:19.360Z,22.2
2016-05-09T12:13:19.208Z,20.28
2016-05-09T12:14:19.382Z,19.6
2016-05-09T12:15:19.275Z,19.42
2016-05-09T12:16:19.387Z,19.32
2016-05-09T12:17:19.421Z,19.61
2016-05-09T12:18:19.408Z,19.8
2016-05-09T12:19:19.411Z,19.51
2016-05-09T12:20:19.429Z,20
2016-05-09T12:21:19.276Z,19.7
2016-05-09T12:22:19.451Z,19.22
2016-05-09T12:23:19.469Z,19.12
2016-05-09T12:24:19.456Z,20.3
2016-05-09T12:25:19.473Z,18.65
2016-05-09T12:26:19.508Z,19.71
2016-05-09T12:27:19.511Z,20.39
2016-05-09T12:28:19.498Z,20.58
2016-05-09T12:29:19.938Z,20.48
2016-05-09T12:30:19.519Z,19.22
2016-05-09T12:31:19.537Z,19.32
2016-05-09T12:32:19.571Z,19.61
2016-05-09T12:33:19.543Z,19.02
2016-05-09T12:34:19.576Z,19.61
2016-05-09T12:35:19.564Z,19.12
2016-05-09T12:36:19.644Z,19.61
2016-05-09T12:37:19.600Z,19.02
2016-05-09T12:38:19.587Z,18.93
2016-05-09T12:39:19.605Z,18.25
2016-05-09T12:40:19.592Z,18.45
2016-05-09T12:41:19.627Z,18.26
2016-05-09T12:42:19.645Z,18.45
2016-05-09T12:43:19.632Z,18.84
2016-05-09T12:44:19.509Z,18.45
2016-05-09T12:45:19.653Z,18.16
2016-05-09T12:46:19.719Z,20.5
2016-05-09T12:47:19.674Z,19.04
2016-05-09T12:48:19.521Z,17.87
2016-05-09T12:49:19.679Z,19.52
2016-05-09T12:50:19.542Z,19.51
2016-05-09T12:51:19.685Z,18.35
2016-05-09T12:52:19.594Z,17.96
2016-05-09T12:53:19.581Z,17.96
2016-05-09T12:54:19.739Z,18.44
2016-05-09T12:55:19.743Z,17.96